createdAt,value
2018-10-09T00:01:27.540Z,8.93
2018-10-09T00:04:30.034Z,10.20
2018-10-09T00:07:25.383Z,12.90
2018-10-09T00:37:26.038Z,10.10
2018-10-09T01:06:11.911Z,10.90
2018-10-09T01:09:15.681Z,9.00
2018-10-09T01:21:48.024Z,13.80
2018-10-09T01:31:24.884Z,10.23
2018-10-09T01:51:10.354Z,11.33
2018-10-09T02:20:27.485Z,13.80
2018-10-09T03:11:27.115Z,16.87
2018-10-09T03:14:31.525Z,11.87
2018-10-09T03:20:31.659Z,11.90
2018-10-09T03:23:20.618Z,11.73
2018-10-09T03:26:15.834Z,12.97
2018-10-09T03:41:22.251Z,13.30
2018-10-09T03:50:02.620Z,15.90
2018-10-09T03:52:59.226Z,15.80
2018-10-09T03:55:48.683Z,17.00
2018-10-09T03:58:38.379Z,12.97
2018-10-09T04:01:26.664Z,18.47
2018-10-09T04:04:26.312Z,15.10
2018-10-09T04:07:27.857Z,16.00
2018-10-09T04:10:19.806Z,13.33
2018-10-09T04:21:08.376Z,16.50
2018-10-09T04:27:05.749Z,17.63
2018-10-09T04:33:24.603Z,17.50
2018-10-09T04:36:19.715Z,19.07
2018-10-09T04:39:06.708Z,19.93
2018-10-09T04:41:54.745Z,14.37
2018-10-09T04:45:07.776Z,17.77
2018-10-09T04:47:59.601Z,16.47
2018-10-09T04:50:42.874Z,15.30
2018-10-09T04:53:42.128Z,16.97
2018-10-09T04:56:37.477Z,17.87
2018-10-09T04:59:41.543Z,17.03
2018-10-09T05:02:38.483Z,18.63
2018-10-09T05:05:31.844Z,15.87
2018-10-09T05:08:22.859Z,21.37
2018-10-09T05:11:08.674Z,19.27
2018-10-09T05:14:07.384Z,19.17
2018-10-09T05:16:57.745Z,19.03
2018-10-09T05:22:39.345Z,20.13
2018-10-09T05:25:26.153Z,23.17
2018-10-09T05:28:15.231Z,20.67
2018-10-09T05:31:04.338Z,19.30
2018-10-09T05:48:45.467Z,20.13
2018-10-09T05:54:25.485Z,23.73
2018-10-09T06:00:17.910Z,25.30
2018-10-09T06:11:46.907Z,23.30
2018-10-09T06:14:30.737Z,22.93
2018-10-09T06:17:22.862Z,19.77
2018-10-09T06:20:05.496Z,21.73
2018-10-09T06:22:58.531Z,23.00
2018-10-09T06:28:55.972Z,21.90
2018-10-09T06:31:38.116Z,26.37
2018-10-09T06:34:21.765Z,23.37
2018-10-09T06:40:18.026Z,22.17
2018-10-09T06:46:20.315Z,19.77
2018-10-09T06:51:58.650Z,23.73
2018-10-09T06:54:50.106Z,27.40
2018-10-09T07:00:38.673Z,20.50
2018-10-09T07:03:27.321Z,21.93
2018-10-09T07:06:08.568Z,22.63
2018-10-09T07:09:00.818Z,29.33
2018-10-09T07:11:48.789Z,27.07
2018-10-09T07:14:49.088Z,24.70
2018-10-09T07:26:35.077Z,28.30
2018-10-09T07:29:25.156Z,21.97
2018-10-09T07:32:17.794Z,27.40
2018-10-09T07:35:00.777Z,26.47
2018-10-09T07:37:50.052Z,27.60
2018-10-09T07:40:37.465Z,25.63
2018-10-09T07:43:23.451Z,26.27
2018-10-09T07:46:05.137Z,30.80
2018-10-09T07:48:54.439Z,31.83
2018-10-09T07:51:53.813Z,23.93
2018-10-09T07:54:40.214Z,25.17
2018-10-09T07:57:26.896Z,29.83
2018-10-09T08:04:09.851Z,28.77
2018-10-09T08:06:47.834Z,32.37
2018-10-09T08:09:44.400Z,31.13
2018-10-09T08:12:48.543Z,27.33
2018-10-09T08:15:47.542Z,29.90
2018-10-09T08:21:41.198Z,37.77
2018-10-09T08:24:33.116Z,52.93
2018-10-09T08:27:24.008Z,34.00
2018-10-09T08:33:11.876Z,28.57
2018-10-09T08:36:06.579Z,42.83
2018-10-09T08:38:59.683Z,41.13
2018-10-09T08:41:53.912Z,31.67
2018-10-09T08:50:24.502Z,36.73
2018-10-09T08:56:15.242Z,26.73
2018-10-09T09:01:49.970Z,20.37
2018-10-09T09:07:59.164Z,20.70
2018-10-09T09:10:57.198Z,16.50
2018-10-09T09:16:40.887Z,21.87
2018-10-09T09:19:27.994Z,19.00
2018-10-09T09:22:15.215Z,28.37
2018-10-09T09:24:59.253Z,24.30
2018-10-09T09:27:40.368Z,25.67
2018-10-09T09:49:52.120Z,29.57
2018-10-09T11:52:48.321Z,17.43
2018-10-09T12:18:56.107Z,18.93
2018-10-09T12:25:09.791Z,16.47
2018-10-09T13:49:18.063Z,16.77
2018-10-09T14:12:59.180Z,17.93
2018-10-09T14:16:03.679Z,17.30
2018-10-09T14:19:53.689Z,15.60
2018-10-09T14:23:11.005Z,17.93
2018-10-09T16:37:57.161Z,20.57
2018-10-09T16:40:27.637Z,22.47
2018-10-09T16:42:56.084Z,24.13
2018-10-09T16:45:28.092Z,21.57
2018-10-09T16:47:57.033Z,20.47
2018-10-09T16:50:28.431Z,19.97
2018-10-09T16:52:56.949Z,23.43
2018-10-09T16:55:29.258Z,24.27
2018-10-09T16:58:00.149Z,25.07
2018-10-09T17:00:35.001Z,23.77
2018-10-09T17:03:08.046Z,23.90
2018-10-09T17:05:39.547Z,27.00
2018-10-09T17:08:18.922Z,30.27
2018-10-09T17:13:25.903Z,25.80
2018-10-09T17:16:03.456Z,30.23
2018-10-09T17:18:32.503Z,28.17
2018-10-09T17:21:03.066Z,33.00
2018-10-09T17:23:38.789Z,30.63
2018-10-09T17:26:07.473Z,36.43
2018-10-09T17:28:36.688Z,32.03
2018-10-09T17:33:52.793Z,31.43
2018-10-09T17:36:21.214Z,26.97
2018-10-09T17:38:50.077Z,29.23
2018-10-09T17:41:18.966Z,33.47
2018-10-09T17:43:47.388Z,30.50
2018-10-09T17:46:16.127Z,31.77
2018-10-09T17:48:44.718Z,33.43
2018-10-09T17:51:13.170Z,37.27
2018-10-09T17:53:41.752Z,39.13
2018-10-09T17:56:10.341Z,43.30
2018-10-09T17:58:38.999Z,37.47
2018-10-09T18:01:07.468Z,35.47
2018-10-09T18:03:36.465Z,38.67
2018-10-09T18:06:05.029Z,45.43
2018-10-09T18:08:33.653Z,42.03
2018-10-09T18:11:08.843Z,48.90
2018-10-09T18:13:37.598Z,44.20
2018-10-09T18:16:06.659Z,32.70
2018-10-09T18:18:35.205Z,30.17
2018-10-09T18:21:03.934Z,39.47
2018-10-09T18:23:32.438Z,53.57
2018-10-09T18:26:01.869Z,64.47
2018-10-09T18:28:30.548Z,74.13
2018-10-09T18:30:59.397Z,59.57
2018-10-09T18:33:34.304Z,39.30
2018-10-09T19:10:25.451Z,27.53
2018-10-09T19:26:17.533Z,36.50
2018-10-09T19:38:40.149Z,33.77
2018-10-09T19:44:38.725Z,34.40
2018-10-09T20:24:49.474Z,23.03
2018-10-09T20:27:22.583Z,29.50
2018-10-09T20:29:54.569Z,26.77
2018-10-09T20:32:29.218Z,27.07
2018-10-09T20:35:25.773Z,25.20
2018-10-09T20:38:00.963Z,26.83
2018-10-09T20:40:36.284Z,21.80
2018-10-09T20:43:08.005Z,34.40
2018-10-09T20:45:37.065Z,32.73
2018-10-09T20:48:06.681Z,24.70
2018-10-09T20:50:35.882Z,27.23
2018-10-09T20:55:44.929Z,21.83
2018-10-09T20:58:13.940Z,23.80
2018-10-09T21:00:43.187Z,20.70
2018-10-09T21:03:12.302Z,23.40
2018-10-09T21:05:45.035Z,32.97
2018-10-09T21:08:19.620Z,59.37
